Terminal Aerodrome Forecast
Issued by NWS North Platte, NE

Home | Current Version | Previous Version | Graphics & Text | Print | Product List | Glossary On
Versions: 1 2 3 4 5 6 7 8 9 10 11 12 13 14 15 16 17 18 19 20
000
FTUS43 KLBF 151120
TAFVTN
TAF
KVTN 151120Z 1512/1612 33015G21KT P6SM FEW250
     FM160600 33010KT P6SM FEW200
     FM161000 31006KT P6SM FEW250=

USA.gov is the U.S. government's official web portal to all federal, state and local government web resources and services.